createdAt,value
2018-11-07T00:04:04.785Z,12.30
2018-11-07T00:11:31.042Z,12.20
2018-11-07T00:18:57.224Z,12.20
2018-11-07T00:26:23.481Z,12.20
2018-11-07T00:31:21.014Z,12.10
2018-11-07T00:36:18.609Z,12.10
2018-11-07T00:43:44.853Z,12.00
2018-11-07T00:46:13.853Z,12.10
2018-11-07T00:48:42.864Z,12.00
2018-11-07T01:11:00.757Z,12.00
2018-11-07T01:15:58.526Z,12.10
2018-11-07T01:18:27.545Z,12.10
2018-11-07T01:20:56.521Z,12.10
2018-11-07T01:30:51.393Z,12.20
2018-11-07T01:33:20.385Z,12.30
2018-11-07T01:43:15.191Z,12.30
2018-11-07T01:48:12.801Z,12.30
2018-11-07T01:55:39.045Z,12.30
2018-11-07T02:00:36.660Z,12.20
2018-11-07T02:08:02.852Z,12.10
2018-11-07T02:13:00.424Z,12.10
2018-11-07T02:20:26.645Z,12.00
2018-11-07T02:27:52.840Z,12.00
2018-11-07T02:35:19.021Z,12.00
2018-11-07T02:40:16.582Z,11.90
2018-11-07T02:47:42.844Z,11.80
2018-11-07T02:52:40.946Z,11.80
2018-11-07T02:55:10.519Z,11.70
2018-11-07T03:05:06.446Z,11.80
2018-11-07T03:12:33.401Z,11.70
2018-11-07T03:15:02.974Z,11.70
2018-11-07T03:20:00.638Z,11.70
2018-11-07T03:27:26.876Z,11.70
2018-11-07T03:39:50.360Z,11.50
2018-11-07T03:42:19.275Z,11.50
2018-11-07T03:44:48.243Z,11.50
2018-11-07T03:49:45.818Z,11.40
2018-11-07T03:52:14.797Z,11.30
2018-11-07T03:57:12.374Z,11.30
2018-11-07T04:07:07.573Z,11.30
2018-11-07T04:09:36.559Z,11.20
2018-11-07T04:14:34.132Z,11.10
2018-11-07T04:24:28.945Z,11.00
2018-11-07T04:31:55.117Z,11.00
2018-11-07T04:36:52.704Z,11.00
2018-11-07T04:41:50.381Z,11.00
2018-11-07T04:49:16.528Z,10.90
2018-11-07T04:56:42.752Z,10.90
2018-11-07T05:01:40.303Z,11.00
2018-11-07T05:04:09.258Z,11.00
2018-11-07T05:06:38.246Z,10.90
2018-11-07T05:09:07.920Z,10.80
2018-11-07T05:11:36.960Z,10.80
2018-11-07T05:16:35.008Z,10.70
2018-11-07T05:21:32.620Z,10.60
2018-11-07T05:33:56.038Z,10.60
2018-11-07T05:41:22.253Z,10.60
2018-11-07T05:51:17.982Z,10.60
2018-11-07T05:53:46.988Z,10.70
2018-11-07T05:58:44.680Z,10.60
2018-11-07T06:16:08.987Z,10.50
2018-11-07T06:18:37.842Z,10.40
2018-11-07T06:21:06.728Z,10.40
2018-11-07T06:26:04.306Z,10.40
2018-11-07T06:28:33.251Z,10.50
2018-11-07T06:33:30.711Z,10.40
2018-11-07T06:38:28.162Z,10.40
2018-11-07T06:43:25.624Z,10.40
2018-11-07T06:48:23.082Z,10.40
2018-11-07T06:55:49.098Z,10.40
2018-11-07T06:58:17.974Z,10.40
2018-11-07T07:05:44.020Z,10.50
2018-11-07T07:18:07.257Z,10.60
2018-11-07T07:20:36.026Z,10.60
2018-11-07T07:28:02.253Z,10.70
2018-11-07T07:30:31.201Z,10.70
2018-11-07T07:35:28.563Z,10.80
2018-11-07T07:37:57.457Z,10.80
2018-11-07T07:42:54.877Z,10.90
2018-11-07T07:52:49.509Z,11.00
2018-11-07T08:02:48.704Z,11.20
2018-11-07T08:07:46.807Z,11.30
2018-11-07T08:10:18.033Z,11.30
2018-11-07T08:12:47.395Z,11.30
2018-11-07T08:15:16.872Z,11.30
2018-11-07T08:17:46.111Z,11.30
2018-11-07T08:20:16.107Z,11.40
2018-11-07T08:22:45.859Z,11.50
2018-11-07T08:40:14.030Z,11.70
2018-11-07T08:42:42.943Z,11.70
2018-11-07T08:47:41.687Z,11.80
2018-11-07T08:52:41.050Z,11.80
2018-11-07T08:55:12.735Z,11.90
2018-11-07T09:00:12.569Z,12.00
2018-11-07T09:07:40.247Z,12.10
2018-11-07T09:10:10.751Z,12.20
2018-11-07T09:12:39.765Z,12.20
2018-11-07T09:17:39.072Z,12.30
2018-11-07T09:20:10.448Z,12.40
2018-11-07T09:22:39.634Z,12.30
2018-11-07T09:35:04.267Z,12.50
2018-11-07T09:37:33.185Z,12.60
2018-11-07T09:44:59.130Z,12.70
2018-11-07T09:47:28.045Z,12.80
2018-11-07T09:54:53.943Z,12.90
2018-11-07T09:59:51.911Z,13.10
2018-11-07T10:14:43.423Z,13.40
2018-11-07T10:17:12.311Z,13.50
2018-11-07T10:19:41.227Z,13.60
2018-11-07T10:22:10.109Z,13.60
2018-11-07T10:24:38.979Z,13.70
2018-11-07T10:27:08.088Z,13.70
2018-11-07T10:29:37.055Z,13.70
2018-11-07T10:34:34.971Z,13.90
2018-11-07T10:37:03.873Z,14.00
2018-11-07T10:42:01.286Z,14.10
2018-11-07T10:44:30.237Z,14.20
2018-11-07T10:46:59.059Z,14.10
2018-11-07T10:49:27.971Z,14.10
2018-11-07T10:59:23.148Z,14.40
2018-11-07T11:01:57.437Z,14.30
2018-11-07T11:06:54.855Z,14.40
2018-11-07T11:16:49.511Z,14.70
2018-11-07T11:21:46.834Z,14.90
2018-11-07T11:26:44.252Z,15.10
2018-11-07T11:29:13.132Z,15.10
2018-11-07T11:31:42.025Z,15.10
2018-11-07T11:36:39.488Z,15.20
2018-11-07T11:39:10.075Z,15.30
2018-11-07T11:44:07.865Z,15.30
2018-11-07T11:46:36.742Z,15.30
2018-11-07T11:51:34.785Z,15.40
2018-11-07T11:54:03.698Z,15.40
2018-11-07T12:03:58.210Z,15.50
2018-11-07T12:06:27.293Z,15.50
2018-11-07T12:11:24.736Z,15.60
2018-11-07T12:16:22.154Z,15.50
2018-11-07T12:21:19.649Z,15.70
2018-11-07T12:28:45.520Z,15.70
2018-11-07T12:43:37.136Z,15.60
2018-11-07T12:51:03.117Z,15.70
2018-11-07T12:58:28.996Z,15.90
2018-11-07T13:03:26.390Z,16.10
2018-11-07T13:05:55.267Z,16.10
2018-11-07T13:08:24.258Z,16.10
2018-11-07T13:10:53.147Z,16.20
2018-11-07T13:18:19.076Z,16.30
2018-11-07T13:23:16.495Z,16.30
2018-11-07T13:25:45.362Z,16.30
2018-11-07T13:35:39.810Z,16.10
2018-11-07T13:45:34.265Z,16.20
2018-11-07T13:48:03.155Z,16.20
2018-11-07T13:50:32.040Z,16.10
2018-11-07T13:53:01.000Z,16.10
2018-11-07T13:57:58.383Z,15.90
2018-11-07T14:00:27.275Z,15.90
2018-11-07T14:07:53.295Z,15.90
2018-11-07T14:10:23.494Z,15.80
2018-11-07T14:12:52.663Z,15.90
2018-11-07T14:17:50.480Z,15.90
2018-11-07T14:30:14.771Z,15.70
2018-11-07T14:35:14.083Z,15.70
2018-11-07T14:47:38.646Z,15.60
2018-11-07T14:50:08.538Z,15.60
2018-11-07T14:52:37.540Z,15.50
2018-11-07T14:57:35.723Z,15.50
2018-11-07T15:00:07.644Z,15.50
2018-11-07T15:05:05.937Z,15.40
2018-11-07T15:07:34.835Z,15.40
2018-11-07T15:10:03.990Z,15.40
2018-11-07T15:19:58.546Z,15.30
2018-11-07T15:22:27.430Z,15.40
2018-11-07T15:27:24.917Z,15.30
2018-11-07T15:32:22.369Z,15.20
2018-11-07T15:39:48.343Z,14.90
2018-11-07T15:44:45.859Z,14.60
2018-11-07T15:57:13.305Z,14.00
2018-11-07T16:07:07.802Z,13.80
2018-11-07T16:12:05.759Z,13.70
2018-11-07T16:14:34.677Z,13.70
2018-11-07T16:17:03.593Z,13.70
2018-11-07T16:19:32.463Z,13.70
2018-11-07T16:22:01.440Z,13.60
2018-11-07T16:24:30.372Z,13.60
2018-11-07T16:26:59.249Z,13.60
2018-11-07T16:34:25.208Z,13.50
2018-11-07T16:39:22.649Z,13.50
2018-11-07T16:44:20.078Z,13.50
2018-11-07T16:46:49.053Z,13.40
2018-11-07T16:56:45.230Z,13.30
2018-11-07T17:01:42.679Z,13.30
2018-11-07T17:04:11.650Z,13.20
2018-11-07T17:09:10.097Z,13.20
2018-11-07T17:14:07.858Z,13.10
2018-11-07T17:19:05.286Z,13.10
2018-11-07T17:21:34.343Z,13.10
2018-11-07T17:33:57.695Z,13.10
2018-11-07T17:36:26.559Z,13.00
2018-11-07T17:38:55.430Z,13.00
2018-11-07T17:43:52.810Z,12.90
2018-11-07T17:48:50.207Z,12.90
2018-11-07T17:51:19.103Z,12.90
2018-11-07T18:01:13.684Z,12.80
2018-11-07T18:03:42.579Z,12.80
2018-11-07T18:08:40.079Z,12.70
2018-11-07T18:18:34.744Z,12.60
2018-11-07T18:21:03.786Z,12.50
2018-11-07T18:23:32.711Z,12.50
2018-11-07T18:43:21.339Z,12.40
2018-11-07T18:48:19.614Z,12.30
2018-11-07T18:50:48.550Z,12.40
2018-11-07T19:00:43.075Z,12.40
2018-11-07T19:05:40.461Z,12.40
2018-11-07T19:08:09.327Z,12.40
2018-11-07T19:10:38.195Z,12.40
2018-11-07T19:15:36.350Z,12.50
2018-11-07T19:18:05.558Z,12.50
2018-11-07T19:25:31.470Z,12.60
2018-11-07T19:37:54.445Z,12.70
2018-11-07T19:42:53.178Z,12.70
2018-11-07T19:50:20.638Z,12.60
2018-11-07T19:55:21.773Z,12.70
2018-11-07T19:57:57.457Z,12.70
2018-11-07T20:00:26.409Z,12.70
2018-11-07T20:02:55.309Z,12.80
2018-11-07T20:07:52.915Z,12.70
2018-11-07T20:10:22.415Z,12.80
2018-11-07T20:15:20.528Z,12.80
2018-11-07T20:17:49.722Z,12.80
2018-11-07T20:20:18.712Z,12.80
2018-11-07T20:30:15.626Z,12.80
2018-11-07T20:32:44.603Z,12.80
2018-11-07T20:35:14.731Z,12.80
2018-11-07T20:37:43.622Z,12.80
2018-11-07T20:45:14.521Z,12.80
2018-11-07T20:47:43.394Z,12.80
2018-11-07T20:52:44.854Z,12.80
2018-11-07T20:55:14.285Z,12.80
2018-11-07T21:07:40.317Z,12.70
2018-11-07T21:10:12.728Z,12.80
2018-11-07T21:12:41.936Z,12.80
2018-11-07T21:15:11.836Z,12.80
2018-11-07T21:17:41.698Z,12.80
2018-11-07T21:20:10.602Z,12.80
2018-11-07T21:25:08.574Z,12.80
2018-11-07T21:35:04.822Z,12.80
2018-11-07T21:37:33.712Z,12.80
2018-11-07T21:44:59.790Z,12.80
2018-11-07T21:47:28.665Z,12.70
2018-11-07T21:52:26.066Z,12.70
2018-11-07T21:54:55.015Z,12.70
2018-11-07T22:04:49.382Z,12.70
2018-11-07T22:14:43.800Z,12.60
2018-11-07T22:19:41.179Z,12.50
2018-11-07T22:22:10.042Z,12.50
2018-11-07T22:37:01.543Z,12.40
2018-11-07T22:41:58.956Z,12.30
2018-11-07T22:46:56.381Z,12.30
2018-11-07T22:49:25.274Z,12.30
2018-11-07T23:04:17.163Z,12.30
2018-11-07T23:06:46.055Z,12.30
2018-11-07T23:11:44.611Z,12.30
2018-11-07T23:14:14.541Z,12.30
2018-11-07T23:16:44.108Z,12.30
2018-11-07T23:21:41.599Z,12.40
2018-11-07T23:24:10.476Z,12.30
2018-11-07T23:39:02.126Z,12.30
2018-11-07T23:41:31.594Z,12.20
2018-11-07T23:46:28.967Z,12.20
2018-11-07T23:51:26.854Z,12.30
